createdAt,value
2022-12-20T00:04:50.255Z,7.91
2022-12-20T00:09:53.118Z,7.89
2022-12-20T00:14:55.971Z,7.95
2022-12-20T00:20:00.479Z,7.97
2022-12-20T00:25:03.335Z,7.84
2022-12-20T00:30:07.667Z,7.88
2022-12-20T00:35:12.535Z,7.87
2022-12-20T00:40:15.473Z,7.80
2022-12-20T00:45:18.332Z,7.79
2022-12-20T00:50:22.959Z,7.74
2022-12-20T00:55:25.834Z,7.71
2022-12-20T01:00:30.825Z,7.72
2022-12-20T01:05:35.373Z,7.78
2022-12-20T01:10:38.965Z,7.69
2022-12-20T01:15:41.822Z,7.57
2022-12-20T01:20:46.516Z,7.67
2022-12-20T01:25:51.877Z,7.65
2022-12-20T01:30:54.733Z,7.59
2022-12-20T01:36:00.861Z,7.50
2022-12-20T01:41:04.228Z,7.50
2022-12-20T01:46:07.328Z,7.45
2022-12-20T01:51:12.284Z,7.34
2022-12-20T01:56:15.988Z,7.22
2022-12-20T02:01:18.985Z,7.29
2022-12-20T02:06:24.388Z,7.33
2022-12-20T02:11:34.635Z,7.35
2022-12-20T02:16:42.521Z,7.44
2022-12-20T02:21:50.294Z,7.49
2022-12-20T02:27:10.965Z,7.46
2022-12-20T02:32:18.063Z,7.45
2022-12-20T02:37:21.754Z,7.37
2022-12-20T02:42:26.549Z,7.37
2022-12-20T02:47:34.299Z,7.40
2022-12-20T02:52:37.322Z,7.39
2022-12-20T02:57:43.890Z,7.38
2022-12-20T03:02:49.970Z,7.41
2022-12-20T03:07:52.859Z,7.49
2022-12-20T03:12:55.740Z,7.37
2022-12-20T03:18:00.245Z,7.39
2022-12-20T03:23:03.096Z,7.44
2022-12-20T03:28:06.021Z,7.40
2022-12-20T03:33:11.535Z,7.31
2022-12-20T03:38:14.394Z,7.24
2022-12-20T03:43:17.312Z,7.33
2022-12-20T03:48:21.797Z,7.38
2022-12-20T03:53:24.726Z,7.44
2022-12-20T03:58:27.849Z,7.48
2022-12-20T04:03:32.407Z,7.56
2022-12-20T04:08:35.343Z,7.54
2022-12-20T04:13:38.188Z,8.08
2022-12-20T04:18:42.709Z,8.03
2022-12-20T04:23:45.581Z,7.87
2022-12-20T04:28:48.418Z,7.76
2022-12-20T04:33:52.910Z,7.74
2022-12-20T04:38:55.763Z,7.72
2022-12-20T04:43:59.546Z,7.57
2022-12-20T04:49:04.967Z,7.68
2022-12-20T04:54:07.815Z,7.76
2022-12-20T04:59:10.629Z,7.77
2022-12-20T05:04:15.143Z,7.87
2022-12-20T05:09:18.096Z,7.60
2022-12-20T05:14:21.092Z,7.44
2022-12-20T05:19:26.792Z,7.50
2022-12-20T05:24:29.629Z,7.59
2022-12-20T05:29:32.504Z,7.60
2022-12-20T05:34:37.025Z,7.68
2022-12-20T05:39:39.876Z,7.66
2022-12-20T05:44:42.703Z,7.55
2022-12-20T05:49:47.198Z,7.69
2022-12-20T05:54:50.060Z,7.60
2022-12-20T05:59:52.893Z,7.59
2022-12-20T06:04:57.386Z,7.67
2022-12-20T06:10:00.369Z,7.66
2022-12-20T06:15:03.297Z,7.61
2022-12-20T06:20:08.804Z,7.64
2022-12-20T06:25:11.693Z,7.65
2022-12-20T06:30:14.928Z,7.72
2022-12-20T06:35:19.454Z,7.71
2022-12-20T06:40:22.296Z,7.71
2022-12-20T06:45:25.264Z,7.72
2022-12-20T06:50:29.792Z,7.58
2022-12-20T06:55:32.671Z,7.24
2022-12-20T07:00:35.498Z,7.26
2022-12-20T07:05:40.087Z,7.37
2022-12-20T07:10:43.680Z,7.45
2022-12-20T07:15:46.503Z,7.51
2022-12-20T07:20:50.973Z,7.57
2022-12-20T07:25:54.542Z,7.54
2022-12-20T07:31:01.029Z,7.53
2022-12-20T07:36:06.721Z,7.59
2022-12-20T07:41:09.937Z,7.50
2022-12-20T07:46:16.849Z,7.46
2022-12-20T07:51:23.303Z,7.48
2022-12-20T07:56:26.623Z,7.49
2022-12-20T08:01:30.157Z,7.55
2022-12-20T08:06:35.009Z,7.49
2022-12-20T08:11:38.188Z,7.49
2022-12-20T08:16:41.140Z,7.53
2022-12-20T08:21:45.672Z,7.57
2022-12-20T08:26:48.524Z,7.56
2022-12-20T08:31:51.460Z,7.62
2022-12-20T08:36:56.371Z,7.67
2022-12-20T08:41:59.217Z,7.65
2022-12-20T08:47:02.075Z,7.65
2022-12-20T08:52:06.679Z,7.65
2022-12-20T08:57:09.571Z,7.57
2022-12-20T09:02:12.566Z,7.56
2022-12-20T09:07:17.166Z,7.53
2022-12-20T09:12:20.018Z,7.48
2022-12-20T09:17:22.851Z,7.56
2022-12-20T09:22:29.072Z,7.36
2022-12-20T09:27:31.943Z,7.32
2022-12-20T09:32:34.864Z,7.30
2022-12-20T09:37:39.372Z,7.36
2022-12-20T09:42:42.249Z,7.43
2022-12-20T09:47:45.113Z,7.46
2022-12-20T09:53:03.158Z,7.56
2022-12-20T09:58:26.306Z,7.50
2022-12-20T10:03:32.231Z,7.42
2022-12-20T10:08:44.465Z,7.51
2022-12-20T10:13:55.522Z,7.60
2022-12-20T10:19:02.857Z,7.50
2022-12-20T10:24:12.201Z,7.55
2022-12-20T10:29:15.041Z,7.59
2022-12-20T10:34:17.871Z,7.64
2022-12-20T10:39:40.644Z,7.65
2022-12-20T10:44:44.922Z,7.62
2022-12-20T10:49:47.752Z,7.51
2022-12-20T10:54:52.259Z,7.50
2022-12-20T10:59:56.739Z,7.50
2022-12-20T11:05:00.475Z,7.59
2022-12-20T11:10:18.384Z,7.62
2022-12-20T11:15:31.690Z,7.57
2022-12-20T11:20:40.067Z,7.58
2022-12-20T11:25:53.677Z,7.52
2022-12-20T11:31:03.784Z,7.56
2022-12-20T11:36:11.803Z,7.49
2022-12-20T11:41:27.305Z,7.48
2022-12-20T11:46:39.385Z,7.53
2022-12-20T11:51:45.964Z,7.48
2022-12-20T11:56:51.823Z,7.38
2022-12-20T12:01:59.955Z,7.36
2022-12-20T12:07:04.259Z,7.41
2022-12-20T12:12:12.564Z,7.39
2022-12-20T12:17:18.860Z,7.41
2022-12-20T12:22:23.533Z,7.45
2022-12-20T12:27:28.789Z,7.44
2022-12-20T12:32:35.048Z,7.39
2022-12-20T12:37:49.363Z,7.39
2022-12-20T12:43:12.740Z,7.37
2022-12-20T12:48:19.660Z,7.37
2022-12-20T12:53:23.470Z,7.30
2022-12-20T12:58:32.200Z,7.28
2022-12-20T13:03:52.345Z,7.13
2022-12-20T13:14:42.810Z,7.10
2022-12-20T13:19:52.032Z,7.14
2022-12-20T13:24:56.306Z,7.05
2022-12-20T13:30:22.908Z,7.00
2022-12-20T13:35:45.049Z,6.96
2022-12-20T13:40:49.456Z,6.95
2022-12-20T13:45:53.901Z,7.05
2022-12-20T13:50:58.732Z,7.12
2022-12-20T14:01:51.608Z,7.17
2022-12-20T14:06:58.194Z,7.21
2022-12-20T14:12:04.841Z,7.12
2022-12-20T14:17:17.318Z,6.97
2022-12-20T14:22:21.964Z,6.93
2022-12-20T14:27:26.224Z,7.06
2022-12-20T14:32:29.135Z,7.10
2022-12-20T14:37:35.646Z,7.17
2022-12-20T14:42:39.378Z,7.16
2022-12-20T14:47:49.437Z,7.19
2022-12-20T14:52:54.985Z,7.17
2022-12-20T14:57:58.191Z,7.16
2022-12-20T15:03:03.049Z,7.10
2022-12-20T15:08:14.968Z,7.01
2022-12-20T15:13:18.812Z,6.95
2022-12-20T15:18:22.022Z,6.90
2022-12-20T15:23:26.542Z,6.86
2022-12-20T15:28:29.568Z,6.81
2022-12-20T15:33:33.681Z,6.72
2022-12-20T15:39:03.898Z,6.68
2022-12-20T15:44:01.764Z,6.52
2022-12-20T15:49:04.770Z,6.52
2022-12-20T15:54:15.918Z,6.59
2022-12-20T15:59:57.761Z,6.66
2022-12-20T16:04:44.659Z,6.73
2022-12-20T16:09:49.189Z,6.80
2022-12-20T16:14:54.092Z,6.86
2022-12-20T16:19:56.980Z,6.82
2022-12-20T16:25:01.584Z,7.02
2022-12-20T16:30:04.583Z,7.22
2022-12-20T16:35:11.383Z,7.33
2022-12-20T16:40:16.134Z,7.45
2022-12-20T16:45:20.443Z,7.63
2022-12-20T16:50:24.409Z,7.72
2022-12-20T16:55:31.142Z,7.79
2022-12-20T17:00:36.299Z,7.85
2022-12-20T17:05:39.191Z,7.99
2022-12-20T17:10:43.686Z,8.23
2022-12-20T17:15:56.100Z,8.55
2022-12-20T17:20:59.031Z,9.00
2022-12-20T17:26:03.535Z,9.24
2022-12-20T17:31:15.584Z,9.61
2022-12-20T17:36:19.150Z,9.89
2022-12-20T17:41:24.694Z,10.14
2022-12-20T17:46:27.701Z,10.46
2022-12-20T17:51:31.329Z,10.68
2022-12-20T17:56:36.569Z,10.48
2022-12-20T18:01:39.685Z,10.69
2022-12-20T18:06:43.266Z,10.72
2022-12-20T18:11:48.170Z,10.93
2022-12-20T18:16:51.070Z,11.21
2022-12-20T18:21:53.943Z,11.17
2022-12-20T18:26:58.446Z,11.02
2022-12-20T18:32:01.423Z,10.88
2022-12-20T18:37:04.301Z,10.99
2022-12-20T18:42:08.858Z,11.16
2022-12-20T18:47:11.757Z,11.22
2022-12-20T18:52:15.326Z,11.19
2022-12-20T18:57:19.803Z,11.31
2022-12-20T19:02:22.832Z,11.32
2022-12-20T19:07:25.851Z,11.36
2022-12-20T19:12:30.471Z,11.51
2022-12-20T19:17:33.343Z,11.46
2022-12-20T19:22:36.219Z,11.78
2022-12-20T19:27:40.725Z,11.87
2022-12-20T19:32:43.576Z,12.06
2022-12-20T19:37:46.441Z,12.07
2022-12-20T19:42:50.978Z,11.99
2022-12-20T19:47:53.868Z,12.14
2022-12-20T19:52:56.715Z,12.22
2022-12-20T19:58:01.227Z,12.27
2022-12-20T20:03:04.393Z,12.34
2022-12-20T20:08:07.447Z,12.41
2022-12-20T20:13:12.057Z,12.49
2022-12-20T20:18:14.931Z,12.63
2022-12-20T20:23:18.014Z,12.61
2022-12-20T20:28:28.030Z,12.58
2022-12-20T20:33:34.286Z,12.79
2022-12-20T20:38:37.187Z,12.97
2022-12-20T20:43:41.970Z,13.03
2022-12-20T20:48:45.072Z,13.27
2022-12-20T20:53:47.908Z,13.05
2022-12-20T20:58:53.526Z,13.02
2022-12-20T21:03:58.287Z,13.05
2022-12-20T21:09:01.447Z,13.05
2022-12-20T21:14:05.942Z,12.88
2022-12-20T21:19:10.218Z,12.82
2022-12-20T21:24:15.282Z,12.84
2022-12-20T21:29:19.802Z,12.76
2022-12-20T21:34:22.680Z,12.57
2022-12-20T21:39:25.519Z,12.67
2022-12-20T21:44:30.029Z,12.89
2022-12-20T21:49:32.882Z,13.03
2022-12-20T21:54:35.844Z,13.08
2022-12-20T21:59:40.351Z,12.99
2022-12-20T22:04:43.235Z,12.75
2022-12-20T22:09:46.986Z,12.82
2022-12-20T22:14:51.512Z,12.83
2022-12-20T22:19:54.383Z,12.97
2022-12-20T22:24:57.247Z,13.00
2022-12-20T22:30:01.879Z,12.86
2022-12-20T22:35:05.048Z,12.88
2022-12-20T22:40:08.549Z,13.08
2022-12-20T22:45:13.131Z,13.00
2022-12-20T22:50:16.069Z,12.86
2022-12-20T22:55:18.946Z,12.98
2022-12-20T23:00:24.969Z,12.97
2022-12-20T23:05:27.849Z,12.67
2022-12-20T23:10:30.684Z,12.80
2022-12-20T23:15:35.146Z,12.72
2022-12-20T23:20:37.976Z,12.57
2022-12-20T23:25:40.871Z,12.59
2022-12-20T23:30:45.754Z,12.63
2022-12-20T23:35:56.763Z,12.64
2022-12-20T23:40:59.613Z,12.55
2022-12-20T23:46:07.944Z,12.55
2022-12-20T23:51:11.229Z,12.50
2022-12-20T23:56:15.500Z,12.37
